首页
METAR-TAF:

METAR-TAF

机场 :

阿加尼亚, 關島, 美国

安東尼奧·汪帕特國際機場

纬度: 13-29N, 经度: 144-48E, 海拔: 91米

当前天气观测

该预报发布于28分钟前的21:54 UTC
风速8节,风向东转东南
温度 28°C
湿度 89%
气压 1012 hPa
能見度: 16.1公里
散云层高于1600英尺

METAR: PGUM 252154Z AUTO 11008KT 10SM SCT016 28/26 A2987 RMK AO2 SLP106 T02830261

时间: 08:22 (22:22 UTC)

预报

该预报发布于4小时和40分钟前的17:42 UTC
预报有效从25日的 18点(UTC)到 26日的 24点(UTC)
风速11节,风向
能見度: 10公里
散云层高于1500英尺
散云层高于3000英尺
多云层高于5000英尺
附近有阵雨
从 25日的 2300点(UTC)
风速14节,风向
能見度: 10公里
散云层高于2000英尺
散云层高于5000英尺
多云层高于10000英尺
附近有阵雨
短暂存在
从 26日的 04点(UTC)到 26日的 08点(UTC)
能見度: 3.2公里
多云层高于1500英尺
多云层高于4000英尺
阴天层高于8000英尺
大阵雨

TAF: PGUM 251742Z 2518/2624 10011KT P6SM VCSH SCT015 SCT030 BKN050 FM252300 10014KT P6SM VCSH SCT020 SCT050 BKN100 TEMPO 2604/2608 2SM +SHRA BKN015 BKN040 OVC080

超过4000个机场的气象观测和天气预报(METAR&TAF报告)。

可查询的气象台以黄色和红色小点在地图上表示。

将鼠标移到小点上方,可查看气象台名称。

然后点击查看天气观测和预报。

如需切换地图:点击带黑十字的绿色按钮放大地图;点击带横线的绿色按钮缩小地图;或者点击绿色箭头查看邻近地区的地图。


METAR-TAF: